Terminal Aerodrome Forecast
Issued by NWS

Home | Current Version | Previous Version | Text Only | Print | Product List | Glossary On
Versions: 1 2 3 4 5 6 7 8 9 10 11 12 13 14 15 16 17 18 19 20 21 22 23 24 25 26
000
FTUS43 KDMX 280520
TAFOTM
TAF
KOTM 280520Z 2806/2906 09005KT P6SM BKN150
     FM280800 09007KT 5SM BR VCSH SCT015 OVC035
     FM281400 13010KT 3SM -TSRA BR SCT007 OVC012CB
     FM282000 15009KT 6SM BR VCSH SCT015 OVC030
     FM290000 15008KT P6SM BKN040=

USA.gov is the U.S. government's official web portal to all federal, state and local government web resources and services.